Salinas, Brazil
Current Conditions -  °F | °C
As of 6:00 PM on Thursday 23 Oct 2014 (Local Time) from SBMK Reporting Station
Scattered Clouds Scattered Clouds  
Wind Chill: 84°   Ceiling: Unl
Heat Index: 84°   Visibility: 6mi
Dew Point: 54°   Wind: 7mph
Humidity: 35%   Direction: 50°NE
Pressure: 30"   Gusts: NA
Location:  16.17°S, 42.29°W
Report Text: SBMK 232000Z 05006KT 020V090 9999 SCT040 FEW045TCU SCT060 29/12 Q1016
Loading
Personal Weather Stations






























Interactive Weather Map
Tropical Storm Tracking
New forecast layout! Learn more

10-Day Weather Forecast

Advertisements
Track Severe Weather on mobile